sensor_id;sensor_type;location;lat;lon;timestamp;temperature;humidity
1650;DHT22;822;53.670;8.676;2023-04-24T00:01:32;11.30;97.40
1650;DHT22;822;53.670;8.676;2023-04-24T00:04:00;11.20;97.40
1650;DHT22;822;53.670;8.676;2023-04-24T00:06:27;11.20;97.40
1650;DHT22;822;53.670;8.676;2023-04-24T00:08:58;11.10;97.40
1650;DHT22;822;53.670;8.676;2023-04-24T00:11:26;11.10;97.40
1650;DHT22;822;53.670;8.676;2023-04-24T00:13:54;11.10;97.50
1650;DHT22;822;53.670;8.676;2023-04-24T00:16:21;11.10;97.50
1650;DHT22;822;53.670;8.676;2023-04-24T00:18:49;11.00;97.50
1650;DHT22;822;53.670;8.676;2023-04-24T00:21:18;11.00;97.60
1650;DHT22;822;53.670;8.676;2023-04-24T00:23:46;11.00;97.60
1650;DHT22;822;53.670;8.676;2023-04-24T00:26:13;11.00;97.70
1650;DHT22;822;53.670;8.676;2023-04-24T00:28:40;11.00;97.70
1650;DHT22;822;53.670;8.676;2023-04-24T00:31:09;11.00;97.70
1650;DHT22;822;53.670;8.676;2023-04-24T00:33:36;11.00;97.70
1650;DHT22;822;53.670;8.676;2023-04-24T00:36:03;10.90;97.70
1650;DHT22;822;53.670;8.676;2023-04-24T00:38:31;11.00;97.80
1650;DHT22;822;53.670;8.676;2023-04-24T00:40:58;11.00;97.80
1650;DHT22;822;53.670;8.676;2023-04-24T00:43:28;11.00;97.80
1650;DHT22;822;53.670;8.676;2023-04-24T00:45:55;11.00;97.90
1650;DHT22;822;53.670;8.676;2023-04-24T00:48:25;11.00;97.90
1650;DHT22;822;53.670;8.676;2023-04-24T00:50:52;11.00;98.00
1650;DHT22;822;53.670;8.676;2023-04-24T00:53:19;11.00;97.90
1650;DHT22;822;53.670;8.676;2023-04-24T00:55:46;11.00;98.00
1650;DHT22;822;53.670;8.676;2023-04-24T00:58:14;11.00;98.00
1650;DHT22;822;53.670;8.676;2023-04-24T01:00:41;11.00;98.00
1650;DHT22;822;53.670;8.676;2023-04-24T01:03:08;11.00;98.00
1650;DHT22;822;53.670;8.676;2023-04-24T01:05:38;11.00;98.00
1650;DHT22;822;53.670;8.676;2023-04-24T01:08:05;11.00;98.10
1650;DHT22;822;53.670;8.676;2023-04-24T01:10:33;11.10;98.10
1650;DHT22;822;53.670;8.676;2023-04-24T01:13:01;11.10;98.10
1650;DHT22;822;53.670;8.676;2023-04-24T01:15:28;11.10;98.10
1650;DHT22;822;53.670;8.676;2023-04-24T01:17:55;11.10;98.10
1650;DHT22;822;53.670;8.676;2023-04-24T01:20:23;11.10;98.10
1650;DHT22;822;53.670;8.676;2023-04-24T01:22:54;11.10;98.10
1650;DHT22;822;53.670;8.676;2023-04-24T01:25:22;11.10;98.10
1650;DHT22;822;53.670;8.676;2023-04-24T01:27:49;11.00;98.20
1650;DHT22;822;53.670;8.676;2023-04-24T01:30:20;11.00;98.20
1650;DHT22;822;53.670;8.676;2023-04-24T01:32:47;11.10;98.20
1650;DHT22;822;53.670;8.676;2023-04-24T01:35:15;11.10;98.20
1650;DHT22;822;53.670;8.676;2023-04-24T01:37:42;11.00;98.10
1650;DHT22;822;53.670;8.676;2023-04-24T01:40:10;11.00;98.10
1650;DHT22;822;53.670;8.676;2023-04-24T01:42:38;11.00;98.00
1650;DHT22;822;53.670;8.676;2023-04-24T01:45:06;11.00;98.00
1650;DHT22;822;53.670;8.676;2023-04-24T01:47:33;11.00;98.00
1650;DHT22;822;53.670;8.676;2023-04-24T01:50:00;11.00;98.00
1650;DHT22;822;53.670;8.676;2023-04-24T01:52:27;10.90;97.70
1650;DHT22;822;53.670;8.676;2023-04-24T01:54:57;11.00;97.50
1650;DHT22;822;53.670;8.676;2023-04-24T01:57:27;11.00;97.10
1650;DHT22;822;53.670;8.676;2023-04-24T01:59:59;11.00;97.10
1650;DHT22;822;53.670;8.676;2023-04-24T02:02:26;11.00;96.80
1650;DHT22;822;53.670;8.676;2023-04-24T02:04:54;11.00;96.60
1650;DHT22;822;53.670;8.676;2023-04-24T02:07:21;11.00;96.60
1650;DHT22;822;53.670;8.676;2023-04-24T02:09:49;11.00;96.60
1650;DHT22;822;53.670;8.676;2023-04-24T02:12:16;10.90;96.40
1650;DHT22;822;53.670;8.676;2023-04-24T02:14:45;10.90;96.30
1650;DHT22;822;53.670;8.676;2023-04-24T02:17:12;10.90;96.10
1650;DHT22;822;53.670;8.676;2023-04-24T02:19:41;10.90;96.10
1650;DHT22;822;53.670;8.676;2023-04-24T02:22:08;10.90;96.10
1650;DHT22;822;53.670;8.676;2023-04-24T02:24:36;10.80;95.90
1650;DHT22;822;53.670;8.676;2023-04-24T02:27:03;10.80;95.50
1650;DHT22;822;53.670;8.676;2023-04-24T02:29:30;10.80;95.40
1650;DHT22;822;53.670;8.676;2023-04-24T02:31:59;10.80;95.20
1650;DHT22;822;53.670;8.676;2023-04-24T02:34:26;10.80;94.90
1650;DHT22;822;53.670;8.676;2023-04-24T02:36:53;10.80;94.80
1650;DHT22;822;53.670;8.676;2023-04-24T02:39:20;10.80;94.90
1650;DHT22;822;53.670;8.676;2023-04-24T02:41:47;10.80;94.80
1650;DHT22;822;53.670;8.676;2023-04-24T02:44:14;10.80;94.90
1650;DHT22;822;53.670;8.676;2023-04-24T02:46:43;10.80;94.50
1650;DHT22;822;53.670;8.676;2023-04-24T02:49:11;10.70;94.40
1650;DHT22;822;53.670;8.676;2023-04-24T02:51:38;10.70;94.40
1650;DHT22;822;53.670;8.676;2023-04-24T02:54:07;10.70;94.40
1650;DHT22;822;53.670;8.676;2023-04-24T02:56:35;10.70;94.50
1650;DHT22;822;53.670;8.676;2023-04-24T02:59:02;10.70;94.30
1650;DHT22;822;53.670;8.676;2023-04-24T03:01:29;10.70;94.40
1650;DHT22;822;53.670;8.676;2023-04-24T03:03:57;10.70;94.60
1650;DHT22;822;53.670;8.676;2023-04-24T03:06:25;10.70;94.70
1650;DHT22;822;53.670;8.676;2023-04-24T03:08:56;10.70;94.80
1650;DHT22;822;53.670;8.676;2023-04-24T03:11:23;10.70;94.70
1650;DHT22;822;53.670;8.676;2023-04-24T03:13:50;10.70;94.90
1650;DHT22;822;53.670;8.676;2023-04-24T03:16:17;10.70;94.80
1650;DHT22;822;53.670;8.676;2023-04-24T03:18:44;10.60;94.80
1650;DHT22;822;53.670;8.676;2023-04-24T03:21:12;10.60;94.90
1650;DHT22;822;53.670;8.676;2023-04-24T03:23:40;10.60;95.10
1650;DHT22;822;53.670;8.676;2023-04-24T03:26:07;10.60;95.20
1650;DHT22;822;53.670;8.676;2023-04-24T03:28:34;10.60;95.40
1650;DHT22;822;53.670;8.676;2023-04-24T03:31:02;10.50;95.40
1650;DHT22;822;53.670;8.676;2023-04-24T03:33:29;10.50;95.60
1650;DHT22;822;53.670;8.676;2023-04-24T03:35:56;10.50;95.70
1650;DHT22;822;53.670;8.676;2023-04-24T03:38:23;10.40;95.90
1650;DHT22;822;53.670;8.676;2023-04-24T03:40:52;10.50;96.10
1650;DHT22;822;53.670;8.676;2023-04-24T03:43:19;10.50;96.20
1650;DHT22;822;53.670;8.676;2023-04-24T03:45:46;10.50;96.50
1650;DHT22;822;53.670;8.676;2023-04-24T03:48:13;10.50;96.20
1650;DHT22;822;53.670;8.676;2023-04-24T03:50:40;10.50;96.10
1650;DHT22;822;53.670;8.676;2023-04-24T03:53:07;10.40;96.20
1650;DHT22;822;53.670;8.676;2023-04-24T03:55:34;10.40;96.10
1650;DHT22;822;53.670;8.676;2023-04-24T03:58:03;10.40;96.10
1650;DHT22;822;53.670;8.676;2023-04-24T04:00:30;10.40;95.90
1650;DHT22;822;53.670;8.676;2023-04-24T04:03:03;10.40;96.00
1650;DHT22;822;53.670;8.676;2023-04-24T04:05:30;10.40;96.00
1650;DHT22;822;53.670;8.676;2023-04-24T04:07:57;10.40;96.10
1650;DHT22;822;53.670;8.676;2023-04-24T04:10:24;10.40;96.10
1650;DHT22;822;53.670;8.676;2023-04-24T04:12:51;10.40;96.10
1650;DHT22;822;53.670;8.676;2023-04-24T04:15:19;10.40;96.10
1650;DHT22;822;53.670;8.676;2023-04-24T04:17:46;10.40;96.00
1650;DHT22;822;53.670;8.676;2023-04-24T04:20:13;10.40;95.90
1650;DHT22;822;53.670;8.676;2023-04-24T04:22:41;10.40;95.90
1650;DHT22;822;53.670;8.676;2023-04-24T04:25:08;10.40;95.90
1650;DHT22;822;53.670;8.676;2023-04-24T04:27:35;10.40;95.90
1650;DHT22;822;53.670;8.676;2023-04-24T04:30:03;10.40;95.90
1650;DHT22;822;53.670;8.676;2023-04-24T04:32:32;10.40;95.90
1650;DHT22;822;53.670;8.676;2023-04-24T04:35:00;10.40;95.80
1650;DHT22;822;53.670;8.676;2023-04-24T04:37:28;10.40;95.80
1650;DHT22;822;53.670;8.676;2023-04-24T04:39:56;10.50;95.70
1650;DHT22;822;53.670;8.676;2023-04-24T04:42:24;10.40;95.60
1650;DHT22;822;53.670;8.676;2023-04-24T04:44:52;10.40;95.60
1650;DHT22;822;53.670;8.676;2023-04-24T04:47:21;10.50;95.60
1650;DHT22;822;53.670;8.676;2023-04-24T04:49:50;10.50;95.20
1650;DHT22;822;53.670;8.676;2023-04-24T04:52:18;10.50;95.10
1650;DHT22;822;53.670;8.676;2023-04-24T04:54:45;10.50;95.30
1650;DHT22;822;53.670;8.676;2023-04-24T04:57:12;10.50;95.00
1650;DHT22;822;53.670;8.676;2023-04-24T04:59:40;10.50;95.00
1650;DHT22;822;53.670;8.676;2023-04-24T05:02:07;10.50;95.20
1650;DHT22;822;53.670;8.676;2023-04-24T05:04:35;10.50;95.40
1650;DHT22;822;53.670;8.676;2023-04-24T05:07:03;10.50;95.50
1650;DHT22;822;53.670;8.676;2023-04-24T05:09:31;10.50;95.70
1650;DHT22;822;53.670;8.676;2023-04-24T05:11:58;10.40;95.90
1650;DHT22;822;53.670;8.676;2023-04-24T05:14:25;10.40;96.10
1650;DHT22;822;53.670;8.676;2023-04-24T05:16:55;10.40;96.20
1650;DHT22;822;53.670;8.676;2023-04-24T05:19:22;10.40;96.40
1650;DHT22;822;53.670;8.676;2023-04-24T05:21:49;10.30;96.50
1650;DHT22;822;53.670;8.676;2023-04-24T05:24:18;10.30;96.70
1650;DHT22;822;53.670;8.676;2023-04-24T05:26:45;10.30;96.80
1650;DHT22;822;53.670;8.676;2023-04-24T05:29:12;10.30;96.90
1650;DHT22;822;53.670;8.676;2023-04-24T05:31:39;10.30;97.00
1650;DHT22;822;53.670;8.676;2023-04-24T05:34:06;10.20;97.10
1650;DHT22;822;53.670;8.676;2023-04-24T05:36:33;10.20;97.20
1650;DHT22;822;53.670;8.676;2023-04-24T05:39:00;10.20;97.20
1650;DHT22;822;53.670;8.676;2023-04-24T05:41:32;10.30;97.20
1650;DHT22;822;53.670;8.676;2023-04-24T05:43:59;10.20;97.20
1650;DHT22;822;53.670;8.676;2023-04-24T05:46:26;10.30;97.30
1650;DHT22;822;53.670;8.676;2023-04-24T05:48:53;10.20;97.10
1650;DHT22;822;53.670;8.676;2023-04-24T05:51:20;10.30;97.20
1650;DHT22;822;53.670;8.676;2023-04-24T05:53:50;10.30;97.10
1650;DHT22;822;53.670;8.676;2023-04-24T05:56:17;10.30;96.90
1650;DHT22;822;53.670;8.676;2023-04-24T05:58:49;10.30;97.00
1650;DHT22;822;53.670;8.676;2023-04-24T06:01:16;10.40;96.90
1650;DHT22;822;53.670;8.676;2023-04-24T06:03:43;10.30;96.80
1650;DHT22;822;53.670;8.676;2023-04-24T06:06:11;10.40;96.90
1650;DHT22;822;53.670;8.676;2023-04-24T06:08:38;10.40;96.80
1650;DHT22;822;53.670;8.676;2023-04-24T06:11:05;10.50;96.60
1650;DHT22;822;53.670;8.676;2023-04-24T06:13:35;10.50;96.50
1650;DHT22;822;53.670;8.676;2023-04-24T06:16:04;10.50;96.50
1650;DHT22;822;53.670;8.676;2023-04-24T06:18:31;10.50;96.50
1650;DHT22;822;53.670;8.676;2023-04-24T06:20:58;10.50;96.50
1650;DHT22;822;53.670;8.676;2023-04-24T06:23:25;10.60;96.40
1650;DHT22;822;53.670;8.676;2023-04-24T06:25:52;10.50;96.40
1650;DHT22;822;53.670;8.676;2023-04-24T06:28:19;10.50;96.40
1650;DHT22;822;53.670;8.676;2023-04-24T06:30:46;10.50;96.20
1650;DHT22;822;53.670;8.676;2023-04-24T06:33:15;10.60;96.20
1650;DHT22;822;53.670;8.676;2023-04-24T06:35:42;10.60;96.20
1650;DHT22;822;53.670;8.676;2023-04-24T06:38:10;10.60;96.30
1650;DHT22;822;53.670;8.676;2023-04-24T06:40:37;10.60;96.10
1650;DHT22;822;53.670;8.676;2023-04-24T06:43:05;10.60;95.80
1650;DHT22;822;53.670;8.676;2023-04-24T06:45:32;10.60;95.70
1650;DHT22;822;53.670;8.676;2023-04-24T06:47:59;10.60;95.80
1650;DHT22;822;53.670;8.676;2023-04-24T06:50:27;10.60;95.80
1650;DHT22;822;53.670;8.676;2023-04-24T06:52:55;10.60;95.70
1650;DHT22;822;53.670;8.676;2023-04-24T06:55:22;10.70;95.70
1650;DHT22;822;53.670;8.676;2023-04-24T06:57:49;10.70;95.80
1650;DHT22;822;53.670;8.676;2023-04-24T07:00:16;10.70;95.80
1650;DHT22;822;53.670;8.676;2023-04-24T07:02:43;10.70;95.70
1650;DHT22;822;53.670;8.676;2023-04-24T07:05:10;10.70;95.70
1650;DHT22;822;53.670;8.676;2023-04-24T07:07:39;10.70;95.80
1650;DHT22;822;53.670;8.676;2023-04-24T07:10:08;10.70;95.80
1650;DHT22;822;53.670;8.676;2023-04-24T07:12:35;10.70;96.00
1650;DHT22;822;53.670;8.676;2023-04-24T07:15:03;10.80;95.90
1650;DHT22;822;53.670;8.676;2023-04-24T07:17:31;10.90;96.00
1650;DHT22;822;53.670;8.676;2023-04-24T07:19:58;10.90;95.70
1650;DHT22;822;53.670;8.676;2023-04-24T07:22:25;11.00;95.50
1650;DHT22;822;53.670;8.676;2023-04-24T07:24:55;11.00;95.60
1650;DHT22;822;53.670;8.676;2023-04-24T07:27:22;11.10;95.80
1650;DHT22;822;53.670;8.676;2023-04-24T07:29:52;11.20;95.60
1650;DHT22;822;53.670;8.676;2023-04-24T07:32:21;11.20;95.10
1650;DHT22;822;53.670;8.676;2023-04-24T07:34:48;11.30;95.10
1650;DHT22;822;53.670;8.676;2023-04-24T07:37:15;11.40;95.20
1650;DHT22;822;53.670;8.676;2023-04-24T07:39:44;11.40;95.10
1650;DHT22;822;53.670;8.676;2023-04-24T07:42:12;11.50;94.80
1650;DHT22;822;53.670;8.676;2023-04-24T07:44:39;11.50;94.80
1650;DHT22;822;53.670;8.676;2023-04-24T07:47:06;11.60;94.50
1650;DHT22;822;53.670;8.676;2023-04-24T07:49:33;11.60;94.40
1650;DHT22;822;53.670;8.676;2023-04-24T07:52:00;11.60;94.10
1650;DHT22;822;53.670;8.676;2023-04-24T07:54:28;11.60;93.90
1650;DHT22;822;53.670;8.676;2023-04-24T07:56:55;11.60;93.70
1650;DHT22;822;53.670;8.676;2023-04-24T07:59:25;11.60;93.80
1650;DHT22;822;53.670;8.676;2023-04-24T08:01:52;11.50;93.30
1650;DHT22;822;53.670;8.676;2023-04-24T08:04:22;11.60;93.50
1650;DHT22;822;53.670;8.676;2023-04-24T08:06:52;11.50;93.20
1650;DHT22;822;53.670;8.676;2023-04-24T08:09:19;11.50;93.40
1650;DHT22;822;53.670;8.676;2023-04-24T08:11:46;11.60;93.30
1650;DHT22;822;53.670;8.676;2023-04-24T08:14:13;11.50;93.10
1650;DHT22;822;53.670;8.676;2023-04-24T08:16:42;11.60;93.30
1650;DHT22;822;53.670;8.676;2023-04-24T08:19:09;11.60;93.50
1650;DHT22;822;53.670;8.676;2023-04-24T08:21:36;11.60;93.50
1650;DHT22;822;53.670;8.676;2023-04-24T08:24:03;11.60;93.50
1650;DHT22;822;53.670;8.676;2023-04-24T08:26:33;11.60;93.10
1650;DHT22;822;53.670;8.676;2023-04-24T08:29:00;11.60;93.10
1650;DHT22;822;53.670;8.676;2023-04-24T08:31:28;11.50;92.60
1650;DHT22;822;53.670;8.676;2023-04-24T08:33:56;11.60;93.00
1650;DHT22;822;53.670;8.676;2023-04-24T08:36:23;11.60;92.60
1650;DHT22;822;53.670;8.676;2023-04-24T08:38:54;11.70;92.50
1650;DHT22;822;53.670;8.676;2023-04-24T08:41:21;11.70;92.40
1650;DHT22;822;53.670;8.676;2023-04-24T08:43:55;11.70;92.40
1650;DHT22;822;53.670;8.676;2023-04-24T08:46:24;11.60;92.40
1650;DHT22;822;53.670;8.676;2023-04-24T08:48:52;11.60;92.50
1650;DHT22;822;53.670;8.676;2023-04-24T08:51:21;11.60;92.20
1650;DHT22;822;53.670;8.676;2023-04-24T08:53:48;11.60;92.40
1650;DHT22;822;53.670;8.676;2023-04-24T08:56:16;11.50;92.40
1650;DHT22;822;53.670;8.676;2023-04-24T08:58:45;11.40;92.50
1650;DHT22;822;53.670;8.676;2023-04-24T09:01:13;11.40;92.60
1650;DHT22;822;53.670;8.676;2023-04-24T09:03:40;11.40;93.00
1650;DHT22;822;53.670;8.676;2023-04-24T09:06:08;11.30;93.20
1650;DHT22;822;53.670;8.676;2023-04-24T09:08:38;11.30;93.40
1650;DHT22;822;53.670;8.676;2023-04-24T09:11:08;11.20;93.40
1650;DHT22;822;53.670;8.676;2023-04-24T09:13:35;11.20;94.00
1650;DHT22;822;53.670;8.676;2023-04-24T09:16:04;11.20;94.00
1650;DHT22;822;53.670;8.676;2023-04-24T09:18:31;11.10;94.20
1650;DHT22;822;53.670;8.676;2023-04-24T09:21:01;11.10;94.40
1650;DHT22;822;53.670;8.676;2023-04-24T09:23:29;11.10;94.70
1650;DHT22;822;53.670;8.676;2023-04-24T09:25:59;11.10;94.90
1650;DHT22;822;53.670;8.676;2023-04-24T09:28:31;11.10;94.90
1650;DHT22;822;53.670;8.676;2023-04-24T09:31:06;11.20;95.00
1650;DHT22;822;53.670;8.676;2023-04-24T09:33:34;11.20;95.10
1650;DHT22;822;53.670;8.676;2023-04-24T09:36:04;11.30;94.20
1650;DHT22;822;53.670;8.676;2023-04-24T09:38:34;11.30;93.90
1650;DHT22;822;53.670;8.676;2023-04-24T09:41:04;11.30;93.80
1650;DHT22;822;53.670;8.676;2023-04-24T09:43:32;11.30;93.80
1650;DHT22;822;53.670;8.676;2023-04-24T09:46:04;11.30;93.80
1650;DHT22;822;53.670;8.676;2023-04-24T09:48:35;11.30;93.80
1650;DHT22;822;53.670;8.676;2023-04-24T09:51:07;11.30;93.70
1650;DHT22;822;53.670;8.676;2023-04-24T09:53:36;11.30;93.40
1650;DHT22;822;53.670;8.676;2023-04-24T09:56:09;11.30;93.30
1650;DHT22;822;53.670;8.676;2023-04-24T09:58:38;11.30;93.50
1650;DHT22;822;53.670;8.676;2023-04-24T10:01:05;11.20;93.60
1650;DHT22;822;53.670;8.676;2023-04-24T10:03:33;11.30;93.70
1650;DHT22;822;53.670;8.676;2023-04-24T10:06:01;11.30;93.60
1650;DHT22;822;53.670;8.676;2023-04-24T10:08:33;11.30;93.60
1650;DHT22;822;53.670;8.676;2023-04-24T10:11:01;11.30;93.40
1650;DHT22;822;53.670;8.676;2023-04-24T10:13:30;11.30;93.40
1650;DHT22;822;53.670;8.676;2023-04-24T10:16:00;11.30;93.50
1650;DHT22;822;53.670;8.676;2023-04-24T10:18:27;11.30;93.90
1650;DHT22;822;53.670;8.676;2023-04-24T10:20:56;11.30;94.10
1650;DHT22;822;53.670;8.676;2023-04-24T10:23:25;11.30;94.10
1650;DHT22;822;53.670;8.676;2023-04-24T10:25:52;11.20;94.10
1650;DHT22;822;53.670;8.676;2023-04-24T10:28:20;11.20;94.50
1650;DHT22;822;53.670;8.676;2023-04-24T10:30:49;11.20;94.50
1650;DHT22;822;53.670;8.676;2023-04-24T10:33:21;11.10;94.70
1650;DHT22;822;53.670;8.676;2023-04-24T10:35:51;11.20;94.90
1650;DHT22;822;53.670;8.676;2023-04-24T10:38:23;11.10;95.00
1650;DHT22;822;53.670;8.676;2023-04-24T10:40:51;11.10;95.00
1650;DHT22;822;53.670;8.676;2023-04-24T10:43:18;11.00;95.20
1650;DHT22;822;53.670;8.676;2023-04-24T10:46:02;11.00;95.40
1650;DHT22;822;53.670;8.676;2023-04-24T10:48:30;11.00;95.40
1650;DHT22;822;53.670;8.676;2023-04-24T10:50:58;11.00;95.60
1650;DHT22;822;53.670;8.676;2023-04-24T10:53:28;10.90;95.60
1650;DHT22;822;53.670;8.676;2023-04-24T10:55:58;10.90;95.80
1650;DHT22;822;53.670;8.676;2023-04-24T10:58:37;10.90;96.00
1650;DHT22;822;53.670;8.676;2023-04-24T11:01:07;10.90;96.40
1650;DHT22;822;53.670;8.676;2023-04-24T11:03:35;10.90;96.50
1650;DHT22;822;53.670;8.676;2023-04-24T11:06:04;10.90;96.70
1650;DHT22;822;53.670;8.676;2023-04-24T11:08:36;10.90;96.70
1650;DHT22;822;53.670;8.676;2023-04-24T11:11:09;11.00;97.00
1650;DHT22;822;53.670;8.676;2023-04-24T11:14:05;10.90;97.10
1650;DHT22;822;53.670;8.676;2023-04-24T11:16:47;11.00;97.20
1650;DHT22;822;53.670;8.676;2023-04-24T11:19:24;10.90;97.00
1650;DHT22;822;53.670;8.676;2023-04-24T11:21:58;10.90;97.30
1650;DHT22;822;53.670;8.676;2023-04-24T11:24:31;10.90;97.40
1650;DHT22;822;53.670;8.676;2023-04-24T11:27:05;10.90;97.50
1650;DHT22;822;53.670;8.676;2023-04-24T11:29:43;10.90;97.60
1650;DHT22;822;53.670;8.676;2023-04-24T11:32:26;10.90;97.10
1650;DHT22;822;53.670;8.676;2023-04-24T11:34:54;10.80;97.20
1650;DHT22;822;53.670;8.676;2023-04-24T11:37:25;10.80;97.10
1650;DHT22;822;53.670;8.676;2023-04-24T11:39:57;10.70;97.20
1650;DHT22;822;53.670;8.676;2023-04-24T11:42:25;10.70;97.30
1650;DHT22;822;53.670;8.676;2023-04-24T11:44:53;10.70;97.40
1650;DHT22;822;53.670;8.676;2023-04-24T11:47:30;10.60;97.30
1650;DHT22;822;53.670;8.676;2023-04-24T11:49:59;10.60;97.40
1650;DHT22;822;53.670;8.676;2023-04-24T11:52:27;10.60;97.50
1650;DHT22;822;53.670;8.676;2023-04-24T11:55:01;10.60;97.50
1650;DHT22;822;53.670;8.676;2023-04-24T11:57:29;10.50;97.50
1650;DHT22;822;53.670;8.676;2023-04-24T11:59:59;10.50;97.60
1650;DHT22;822;53.670;8.676;2023-04-24T12:02:28;10.50;97.80
1650;DHT22;822;53.670;8.676;2023-04-24T12:04:55;10.50;97.90
1650;DHT22;822;53.670;8.676;2023-04-24T12:07:23;10.50;97.90
1650;DHT22;822;53.670;8.676;2023-04-24T12:09:58;10.50;98.00
1650;DHT22;822;53.670;8.676;2023-04-24T12:12:26;10.50;98.00
1650;DHT22;822;53.670;8.676;2023-04-24T12:14:56;10.50;98.10
1650;DHT22;822;53.670;8.676;2023-04-24T12:17:25;10.50;98.10
1650;DHT22;822;53.670;8.676;2023-04-24T12:19:57;10.50;98.20
1650;DHT22;822;53.670;8.676;2023-04-24T12:22:25;10.50;98.20
1650;DHT22;822;53.670;8.676;2023-04-24T12:24:56;10.50;98.30
1650;DHT22;822;53.670;8.676;2023-04-24T12:27:25;10.40;98.20
1650;DHT22;822;53.670;8.676;2023-04-24T12:29:53;10.40;98.20
1650;DHT22;822;53.670;8.676;2023-04-24T12:32:21;10.30;98.20
1650;DHT22;822;53.670;8.676;2023-04-24T12:34:49;10.30;98.20
1650;DHT22;822;53.670;8.676;2023-04-24T12:37:22;10.30;98.20
1650;DHT22;822;53.670;8.676;2023-04-24T12:40:02;10.30;98.10
1650;DHT22;822;53.670;8.676;2023-04-24T12:42:32;10.30;98.10
1650;DHT22;822;53.670;8.676;2023-04-24T12:45:01;10.20;98.00
1650;DHT22;822;53.670;8.676;2023-04-24T12:47:29;10.10;98.00
1650;DHT22;822;53.670;8.676;2023-04-24T12:49:56;10.10;98.20
1650;DHT22;822;53.670;8.676;2023-04-24T12:52:25;10.20;98.30
1650;DHT22;822;53.670;8.676;2023-04-24T12:54:54;10.10;98.10
1650;DHT22;822;53.670;8.676;2023-04-24T12:57:23;10.10;98.20
1650;DHT22;822;53.670;8.676;2023-04-24T12:59:53;10.10;98.20
1650;DHT22;822;53.670;8.676;2023-04-24T13:02:20;10.10;98.30
1650;DHT22;822;53.670;8.676;2023-04-24T13:04:48;10.10;98.20
1650;DHT22;822;53.670;8.676;2023-04-24T13:07:16;10.10;98.20
1650;DHT22;822;53.670;8.676;2023-04-24T13:09:45;10.10;98.20
1650;DHT22;822;53.670;8.676;2023-04-24T13:12:13;10.00;98.10
1650;DHT22;822;53.670;8.676;2023-04-24T13:14:40;10.00;98.30
1650;DHT22;822;53.670;8.676;2023-04-24T13:17:07;10.00;98.10
1650;DHT22;822;53.670;8.676;2023-04-24T13:19:38;10.00;98.10
1650;DHT22;822;53.670;8.676;2023-04-24T13:22:06;9.90;98.10
1650;DHT22;822;53.670;8.676;2023-04-24T13:24:34;9.90;98.10
1650;DHT22;822;53.670;8.676;2023-04-24T13:27:02;9.80;98.10
1650;DHT22;822;53.670;8.676;2023-04-24T13:29:29;9.80;97.90
1650;DHT22;822;53.670;8.676;2023-04-24T13:31:56;9.80;98.00
1650;DHT22;822;53.670;8.676;2023-04-24T13:34:25;9.70;98.00
1650;DHT22;822;53.670;8.676;2023-04-24T13:36:58;9.70;98.10
1650;DHT22;822;53.670;8.676;2023-04-24T13:39:25;9.60;98.20
1650;DHT22;822;53.670;8.676;2023-04-24T13:41:52;9.60;98.10
1650;DHT22;822;53.670;8.676;2023-04-24T13:44:21;9.60;98.10
1650;DHT22;822;53.670;8.676;2023-04-24T13:46:51;9.50;98.20
1650;DHT22;822;53.670;8.676;2023-04-24T13:49:23;9.50;98.10
1650;DHT22;822;53.670;8.676;2023-04-24T13:51:52;9.50;97.90
1650;DHT22;822;53.670;8.676;2023-04-24T13:54:19;9.40;97.90
1650;DHT22;822;53.670;8.676;2023-04-24T13:56:47;9.40;97.70
1650;DHT22;822;53.670;8.676;2023-04-24T13:59:14;9.30;97.70
1650;DHT22;822;53.670;8.676;2023-04-24T14:01:43;9.30;97.70
1650;DHT22;822;53.670;8.676;2023-04-24T14:04:11;9.20;97.80
1650;DHT22;822;53.670;8.676;2023-04-24T14:06:38;9.20;97.90
1650;DHT22;822;53.670;8.676;2023-04-24T14:09:06;9.20;97.90
1650;DHT22;822;53.670;8.676;2023-04-24T14:11:34;9.10;97.90
1650;DHT22;822;53.670;8.676;2023-04-24T14:14:01;9.10;98.00
1650;DHT22;822;53.670;8.676;2023-04-24T14:16:29;9.10;98.00
1650;DHT22;822;53.670;8.676;2023-04-24T14:18:57;9.10;98.10
1650;DHT22;822;53.670;8.676;2023-04-24T14:21:29;9.00;98.10
1650;DHT22;822;53.670;8.676;2023-04-24T14:23:56;9.00;98.10
1650;DHT22;822;53.670;8.676;2023-04-24T14:26:23;9.00;98.10
1650;DHT22;822;53.670;8.676;2023-04-24T14:28:51;9.00;98.20
1650;DHT22;822;53.670;8.676;2023-04-24T14:31:18;9.00;98.20
1650;DHT22;822;53.670;8.676;2023-04-24T14:33:45;9.00;98.20
1650;DHT22;822;53.670;8.676;2023-04-24T14:36:14;8.90;98.20
1650;DHT22;822;53.670;8.676;2023-04-24T14:38:45;8.90;98.20
1650;DHT22;822;53.670;8.676;2023-04-24T14:41:12;8.90;98.30
1650;DHT22;822;53.670;8.676;2023-04-24T14:43:42;8.90;98.40
1650;DHT22;822;53.670;8.676;2023-04-24T14:46:10;8.90;98.50
1650;DHT22;822;53.670;8.676;2023-04-24T14:48:37;8.90;98.50
1650;DHT22;822;53.670;8.676;2023-04-24T14:51:04;8.90;98.50
1650;DHT22;822;53.670;8.676;2023-04-24T14:53:33;8.90;98.40
1650;DHT22;822;53.670;8.676;2023-04-24T14:56:01;8.90;98.40
1650;DHT22;822;53.670;8.676;2023-04-24T14:58:28;8.80;98.00
1650;DHT22;822;53.670;8.676;2023-04-24T15:00:55;8.80;98.00
1650;DHT22;822;53.670;8.676;2023-04-24T15:03:22;8.70;98.10
1650;DHT22;822;53.670;8.676;2023-04-24T15:05:50;8.70;98.10
1650;DHT22;822;53.670;8.676;2023-04-24T15:08:17;8.70;98.20
1650;DHT22;822;53.670;8.676;2023-04-24T15:10:48;8.70;98.20
1650;DHT22;822;53.670;8.676;2023-04-24T15:13:16;8.70;98.20
1650;DHT22;822;53.670;8.676;2023-04-24T15:15:47;8.70;98.20
1650;DHT22;822;53.670;8.676;2023-04-24T15:18:15;8.70;98.20
1650;DHT22;822;53.670;8.676;2023-04-24T15:20:42;8.70;98.20
1650;DHT22;822;53.670;8.676;2023-04-24T15:23:13;8.70;98.40
1650;DHT22;822;53.670;8.676;2023-04-24T15:25:40;8.70;98.40
1650;DHT22;822;53.670;8.676;2023-04-24T15:28:09;8.70;98.50
1650;DHT22;822;53.670;8.676;2023-04-24T15:30:36;8.80;98.60
1650;DHT22;822;53.670;8.676;2023-04-24T15:33:03;8.80;98.60
1650;DHT22;822;53.670;8.676;2023-04-24T15:35:31;8.80;98.60
1650;DHT22;822;53.670;8.676;2023-04-24T15:37:58;8.80;98.60
1650;DHT22;822;53.670;8.676;2023-04-24T15:40:25;8.80;98.70
1650;DHT22;822;53.670;8.676;2023-04-24T15:42:59;8.80;98.70
1650;DHT22;822;53.670;8.676;2023-04-24T15:45:27;8.80;98.70
1650;DHT22;822;53.670;8.676;2023-04-24T15:47:55;8.80;98.80
1650;DHT22;822;53.670;8.676;2023-04-24T15:50:26;8.80;98.80
1650;DHT22;822;53.670;8.676;2023-04-24T15:52:53;8.80;98.80
1650;DHT22;822;53.670;8.676;2023-04-24T15:55:20;8.80;98.80
1650;DHT22;822;53.670;8.676;2023-04-24T15:57:47;8.80;98.80
1650;DHT22;822;53.670;8.676;2023-04-24T16:00:16;8.80;98.70
1650;DHT22;822;53.670;8.676;2023-04-24T16:02:45;8.80;98.70
1650;DHT22;822;53.670;8.676;2023-04-24T16:05:18;8.80;98.60
1650;DHT22;822;53.670;8.676;2023-04-24T16:07:47;8.80;98.60
1650;DHT22;822;53.670;8.676;2023-04-24T16:10:14;8.80;98.60
1650;DHT22;822;53.670;8.676;2023-04-24T16:12:41;8.70;98.60
1650;DHT22;822;53.670;8.676;2023-04-24T16:15:09;8.80;98.60
1650;DHT22;822;53.670;8.676;2023-04-24T16:17:36;8.70;98.50
1650;DHT22;822;53.670;8.676;2023-04-24T16:20:06;8.70;98.50
1650;DHT22;822;53.670;8.676;2023-04-24T16:22:33;8.80;98.50
1650;DHT22;822;53.670;8.676;2023-04-24T16:25:00;8.70;98.40
1650;DHT22;822;53.670;8.676;2023-04-24T16:27:27;8.80;98.40
1650;DHT22;822;53.670;8.676;2023-04-24T16:30:01;8.80;98.50